• Join FlightAware (Why Join?)
  • Login
  • US Flag 
11:16AM EST


 

Airport Tracker/Info


-or-


 

Live Flight TrackerFlight Track Log ✈ EJA292 ✈ 25-Jul-2013 ✈ KGUC - KSGR

Flight Track Log - Related Links

Times and Time Zones

All times are in EDT time to prevent confusion due to time zone crossing. See the EJA292 flight status page for this flight to view local times or setup timezone preferences in your user account.

Time Position Orientation Groundspeed Altitude Reporting Facility
EDT Latitude Longitude Course Direction KTS MPH feet Rate Location/Type
06:33PM 38.3858 -106.9958 208° Southwest 265 305 15,600  Level Denver Center
06:34PM 38.3183 -107.0300 202° Southwest 263 303 17,500 1,680 Climbing Denver Center
06:35PM 38.2897 -107.0986 242° Southwest 266 306 19,100 1,260 Climbing Denver Center
06:37PM 38.2008 -107.1678 211° Southwest 321 369 20,200 1,440 Climbing Denver Center
06:38PM 37.8921 -107.3402 207° Southwest  Level FlightAware Approximate
06:38PM 38.1114 -107.2222 206° Southwest 344 396 22,100  Level Denver Center
06:39PM 37.7872 -107.4141 208° Southwest  Level FlightAware Approximate
06:39PM 38.0131 -107.2886 208° Southwest 350 403 23,200  Level Denver Center
06:40PM 37.9094 -107.3564 207° Southwest 381 438 24,700 1,200 Climbing Denver Center
06:41PM 37.8019 -107.4278 208° Southwest 389 448 26,000 1,200 Climbing Denver Center
06:42PM 37.7081 -107.4881 207° Southwest 394 453 27,300 1,080 Climbing Denver Center
06:43PM 37.5961 -107.5603 207° Southwest 402 463 28,300 900 Climbing Denver Center
06:44PM 37.4753 -107.5233 166° South 441 507 29,200 900 Climbing Denver Center
06:45PM 37.3969 -107.4064 130° Southeast 456 525 30,200 780 Climbing Denver Center
06:46PM 37.3297 -107.3094 131° Southeast 459 528 30,900 720 Climbing Denver Center
06:47PM 37.2219 -107.1511 130° Southeast 468 539 31,800 900 Climbing Denver Center
06:48PM 37.1258 -107.0089 130° Southeast 476 548 32,800 1,020 Climbing Denver Center
06:49PM 37.0431 -106.8867 130° Southeast 480 552 34,000 1,320 Climbing Denver Center
06:50PM 36.9469 -106.7472 131° Southeast 473 544 35,600 1,200 Climbing Denver Center
06:51PM 36.8667 -106.6289 130° Southeast 468 539 36,500 960 Climbing Denver Center
06:52PM 36.7850 -106.5103 131° Southeast 470 541 37,600 780 Climbing Denver Center
06:54PM 36.6807 -106.3614 122° Southeast  Level FlightAware Approximate
06:54PM 36.6092 -106.2558 122° Southeast 467 537 39,000  Level Albuquerque Center
06:55PM 36.5214 -106.1317 131° Southeast 488 562 39,000  Level Albuquerque Center
06:56PM 36.4331 -106.0047 131° Southeast 503 579 39,000 180 Level Albuquerque Center
06:57PM 36.3386 -105.8708 131° Southeast 511 588 39,400 780 Climbing Albuquerque Center
06:58PM 36.2286 -105.7133 131° Southeast 504 580 40,700 1,200 Climbing Albuquerque Center
06:59PM 36.1428 -105.5942 132° Southeast 493 567 41,900 1,080 Climbing Albuquerque Center
07:00PM 36.0261 -105.4972 146° Southeast 458 527 43,000 480 Climbing Albuquerque Center
07:01PM 35.9111 -105.4203 152° Southeast 463 533 43,000  Level Albuquerque Center
07:02PM 35.7936 -105.3433 152° Southeast 472 543 43,000  Level Albuquerque Center
07:04PM 35.6742 -105.2622 151° Southeast 483 556 43,000  Level Albuquerque Center
07:05PM 35.5567 -105.1747 149° Southeast 489 563 43,000  Level Albuquerque Center
07:06PM 35.4408 -105.0833 147° Southeast 492 566 43,000  Level Albuquerque Center
07:07PM 35.3278 -104.9419 134° Southeast 496 571 43,000  Level Albuquerque Center
07:08PM 35.2378 -104.8150 131° Southeast 494 568 43,000  Level Albuquerque Center
07:09PM 35.1483 -104.6875 131° Southeast 492 566 43,000  Level Albuquerque Center
07:10PM 35.0589 -104.5614 131° Southeast 492 566 43,000  Level Albuquerque Center
07:11PM 34.9700 -104.4339 130° Southeast 493 567 43,000  Level Albuquerque Center
07:12PM 34.8839 -104.3061 129° Southeast 490 564 43,000  Level Albuquerque Center
07:13PM 34.7833 -104.1592 130° Southeast 485 558 43,000  Level Albuquerque Center
07:14PM 34.6975 -104.0344 130° Southeast 482 555 43,000  Level Albuquerque Center
07:15PM 34.6114 -103.9097 130° Southeast 480 552 43,000  Level Albuquerque Center
07:16PM 34.5244 -103.7853 130° Southeast 481 554 43,000  Level Albuquerque Center
07:17PM 34.4381 -103.6603 130° Southeast 482 555 43,000  Level Albuquerque Center
07:18PM 34.3514 -103.5358 130° Southeast 480 552 43,000  Level Albuquerque Center
07:19PM 34.2650 -103.4139 131° Southeast 476 548 43,000  Level Albuquerque Center
07:20PM 34.1800 -103.2897 130° Southeast 476 548 43,000  Level Albuquerque Center
07:21PM 34.0933 -103.1681 131° Southeast 475 547 43,000  Level Albuquerque Center
07:22PM 33.9917 -103.0261 131° Southeast 475 547 43,000  Level Albuquerque Center
07:23PM 33.9158 -102.9228 131° Southeast 473 544 43,000 -360 Level Albuquerque Center
07:24PM 33.8297 -102.8014 130° Southeast 474 545 42,300 -840 Descending Albuquerque Center
07:25PM 33.7439 -102.6819 131° Southeast 473 544 41,300 -660 Descending Albuquerque Center
07:26PM 33.6567 -102.5617 131° Southeast 476 548 41,000 -180 Descending Albuquerque Center
07:27PM 33.5575 -102.4211 130° Southeast 466 536 41,000  Level Albuquerque Center
07:28PM 33.4719 -102.3053 132° Southeast 462 532 41,000  Level Albuquerque Center
07:29PM 33.3839 -102.1842 131° Southeast 472 543 41,000  Level Albuquerque Center
07:30PM 33.2928 -102.0567 131° Southeast 490 564 41,000  Level Albuquerque Center
07:32PM 33.1606 -101.8847 133° Southeast 491 565 41,000  Level Fort Worth Center
07:33PM 33.0708 -101.7639 132° Southeast 485 558 41,000  Level Fort Worth Center
07:34PM 32.9933 -101.6511 129° Southeast 485 558 41,000  Level Fort Worth Center
07:35PM 32.9053 -101.5381 133° Southeast 475 547 41,000  Level Fort Worth Center
07:36PM 32.8175 -101.4178 131° Southeast 475 547 41,000  Level Fort Worth Center
07:37PM 32.7292 -101.3003 132° Southeast 475 547 41,000  Level Fort Worth Center
07:38PM 32.6411 -101.1781 131° Southeast 480 552 41,000  Level Fort Worth Center
07:39PM 32.5486 -101.0583 132° Southeast 480 552 41,000  Level Fort Worth Center
07:40PM 32.4561 -100.9364 132° Southeast 485 558 41,000  Level Fort Worth Center
07:41PM 32.3656 -100.8150 131° Southeast 485 558 41,000  Level Fort Worth Center
07:42PM 32.2625 -100.6833 133° Southeast 491 565 41,000  Level Fort Worth Center
07:43PM 32.1717 -100.5622 132° Southeast 491 565 41,000  Level Fort Worth Center
07:44PM 32.0808 -100.4414 132° Southeast 486 559 41,000  Level Fort Worth Center
07:45PM 31.9936 -100.3258 132° Southeast 481 554 41,000  Level Fort Worth Center
07:46PM 31.9067 -100.2106 132° Southeast 481 554 41,000  Level Fort Worth Center
07:47PM 31.8172 -100.0953 132° Southeast 476 548 41,000  Level Fort Worth Center
07:48PM 31.7256 -99.9803 133° Southeast 476 548 41,000  Level Fort Worth Center
07:50PM 31.5361 -99.7289 131° Southeast 487 560 41,000  Level Houston Center
07:51PM 31.4450 -99.6122 132° Southeast 486 559 41,000  Level Houston Center
07:52PM 31.3506 -99.4900 132° Southeast 484 557 41,000  Level Houston Center
07:53PM 31.2639 -99.3789 132° Southeast 484 557 41,000  Level Houston Center
07:54PM 31.1733 -99.2636 133° Southeast 482 555 41,000  Level Houston Center
07:55PM 31.0775 -99.1419 133° Southeast 478 550 41,000  Level Houston Center
07:56PM 30.9856 -99.0269 133° Southeast 480 552 41,000  Level Houston Center
07:57PM 30.8789 -98.8919 133° Southeast 481 554 41,000  Level Houston Center
07:58PM 30.7931 -98.7697 129° Southeast 486 559 41,000  Level Houston Center
07:59PM 30.7614 -98.6203 104° East 477 549 41,000  Level Houston Center
08:00PM 30.7264 -98.4694 105° East 478 550 41,000  Level Houston Center
08:01PM 30.7100 -98.3164 97° East 476 548 41,000 -120 Level Houston Center
08:02PM 30.7028 -98.1625 93° East 474 545 40,800 -1,020 Descending Houston Center
08:03PM 30.6950 -98.0081 93° East 476 548 38,900 -1,860 Descending Houston Center
08:04PM 30.6853 -97.8256 93° East 483 556 37,000 -960 Descending Houston Center
08:05PM 30.6769 -97.6700 94° East 481 554 37,000 -600 Level Houston Center
08:06PM 30.6692 -97.5131 93° East 485 558 35,800 -1,560 Descending Houston Center
08:07PM 30.6603 -97.3522 94° East 498 573 33,800 -2,100 Descending Houston Center
08:08PM 30.6517 -97.1903 93° East 504 580 31,500 -2,520 Descending Houston Center
08:09PM 30.6417 -97.0011 93° East 504 580 28,600 -3,240 Descending Houston Center
08:10PM 30.6253 -96.8439 97° East 497 572 24,900 -3,780 Descending Houston Center
08:11PM 30.5553 -96.7194 123° Southeast 460 529 20,800 -3,780 Descending Houston Center
08:12PM 30.4836 -96.5983 124° Southeast 427 491 17,100 -3,300 Descending Houston Center
08:13PM 30.4278 -96.5050 125° Southeast 389 448 14,400 -2,940 Descending Houston Center
08:14PM 30.3647 -96.4008 125° Southeast 364 419 11,500 -2,460 Descending Houston Center
08:15PM 30.3117 -96.3172 126° Southeast 297 342 9,400 -2,160 Descending Houston Center
08:16PM 30.2392 -96.2792 156° South 299 344 7,200 -1,140 Descending Houston Center
08:18PM 30.1567 -96.2450 160° South 271 312 7,000 -240 Descending Houston Center
08:19PM 30.0786 -96.2133 161° South 276 318 6,700 -900 Descending Houston Center
08:19PM 30.0133 -96.1886 162° South 283 326 5,300 -900 Descending Houston Center
08:21PM 29.9331 -96.1567 161° South 266 306 5,000 -420 Descending Houston Center
08:22PM 29.8856 -96.0947 131° Southeast 256 295 4,500 -540 Descending Houston Center
08:23PM 29.8467 -96.0317 125° Southeast 231 266 4,000 -480 Descending Houston Center
08:24PM 29.8092 -95.9639 123° Southeast 255 293 3,600 -540 Descending Houston Center
08:25PM 29.7639 -95.8881 125° Southeast 242 278 2,900 -840 Descending Houston Center
08:26PM 29.7331 -95.8353 124° Southeast 233 268 1,900 -540 Descending Houston Center
08:27PM 29.6992 -95.7842 127° Southeast 195 224 2,000  Climbing Houston Center
08:28PM 29.6839 -95.7328 109° East 175 201 1,900 -360 Descending Houston Center
08:29PM 29.6747 -95.6764 101° East 161 185 1,300 -780 Descending Houston Center
08:30PM 29.6503 -95.6600 150° Southeast 106 122 400 -1,020 Descending Houston Center
08:32PM 29.6167 -95.6500 131° Southeast  Level FlightAware Approximate